createdAt,value
2018-05-24T00:02:20.996Z,14.10
2018-05-24T00:04:49.571Z,14.93
2018-05-24T00:07:18.146Z,14.07
2018-05-24T00:09:46.702Z,14.10
2018-05-24T00:12:15.259Z,13.87
2018-05-24T00:14:43.832Z,12.70
2018-05-24T00:17:12.392Z,13.77
2018-05-24T00:19:40.955Z,13.53
2018-05-24T00:22:09.521Z,14.40
2018-05-24T00:24:38.079Z,13.50
2018-05-24T00:27:06.655Z,13.43
2018-05-24T00:29:35.219Z,13.73
2018-05-24T00:32:03.817Z,12.37
2018-05-24T00:34:32.422Z,13.17
2018-05-24T00:37:01.005Z,12.80
2018-05-24T00:39:29.566Z,13.07
2018-05-24T00:41:58.131Z,12.63
2018-05-24T00:44:26.743Z,12.73
2018-05-24T00:46:55.316Z,13.00
2018-05-24T00:49:23.871Z,12.73
2018-05-24T00:51:52.429Z,13.27
2018-05-24T00:54:21.110Z,12.83
2018-05-24T00:56:49.680Z,13.50
2018-05-24T00:59:18.238Z,12.03
2018-05-24T01:01:46.814Z,13.27
2018-05-24T01:04:15.403Z,13.37
2018-05-24T01:06:43.966Z,13.27
2018-05-24T01:09:12.540Z,12.80
2018-05-24T01:11:41.107Z,13.27
2018-05-24T01:14:09.710Z,12.30
2018-05-24T01:16:38.293Z,12.23
2018-05-24T01:19:06.852Z,14.00
2018-05-24T01:21:35.460Z,13.50
2018-05-24T01:24:03.668Z,12.80
2018-05-24T01:26:32.252Z,12.57
2018-05-24T01:29:00.825Z,13.67
2018-05-24T01:31:29.392Z,12.77
2018-05-24T01:33:57.950Z,13.13
2018-05-24T01:36:41.445Z,12.53
2018-05-24T01:39:10.044Z,12.60
2018-05-24T01:41:39.253Z,12.90
2018-05-24T01:44:07.814Z,11.90
2018-05-24T01:46:36.379Z,12.60
2018-05-24T01:49:04.934Z,12.73
2018-05-24T01:51:33.557Z,11.67
2018-05-24T01:54:02.116Z,12.70
2018-05-24T01:56:30.727Z,12.87
2018-05-24T01:58:59.287Z,12.70
2018-05-24T02:01:27.896Z,13.27
2018-05-24T02:03:56.464Z,12.77
2018-05-24T02:06:24.768Z,12.73
2018-05-24T02:08:53.331Z,12.30
2018-05-24T02:11:21.906Z,12.23
2018-05-24T02:13:50.467Z,11.80
2018-05-24T02:16:19.025Z,11.47
2018-05-24T02:18:47.591Z,12.23
2018-05-24T02:21:16.147Z,11.53
2018-05-24T02:23:44.709Z,12.33
2018-05-24T02:26:13.279Z,11.40
2018-05-24T02:28:41.844Z,11.73
2018-05-24T02:31:10.404Z,11.30
2018-05-24T02:33:38.977Z,11.50
2018-05-24T02:36:07.827Z,12.43
2018-05-24T02:38:36.359Z,12.17
2018-05-24T02:41:04.939Z,12.37
2018-05-24T02:43:33.508Z,11.63
2018-05-24T02:46:02.113Z,11.83
2018-05-24T02:48:30.671Z,11.70
2018-05-24T02:50:59.286Z,11.97
2018-05-24T02:53:27.851Z,12.30
2018-05-24T02:55:56.417Z,12.37
2018-05-24T02:58:25.034Z,12.23
2018-05-24T03:00:53.588Z,11.60
2018-05-24T03:03:22.160Z,11.40
2018-05-24T03:05:50.778Z,11.93
2018-05-24T03:08:19.347Z,12.20
2018-05-24T03:10:47.945Z,12.87
2018-05-24T03:13:16.541Z,13.00
2018-05-24T03:15:45.142Z,12.97
2018-05-24T03:18:13.703Z,13.90
2018-05-24T03:20:42.272Z,14.23
2018-05-24T03:23:10.851Z,14.60
2018-05-24T03:25:39.407Z,15.53
2018-05-24T03:28:07.964Z,15.33
2018-05-24T03:30:36.571Z,15.87
2018-05-24T03:33:05.126Z,16.80
2018-05-24T03:35:33.730Z,16.73
2018-05-24T03:38:02.327Z,14.50
2018-05-24T03:40:30.928Z,13.57
2018-05-24T03:42:59.487Z,14.10
2018-05-24T03:45:28.205Z,14.00
2018-05-24T03:47:56.827Z,14.37
2018-05-24T03:50:25.396Z,14.23
2018-05-24T03:52:53.970Z,13.30
2018-05-24T03:55:22.528Z,11.53
2018-05-24T03:57:51.186Z,11.63
2018-05-24T04:00:30.775Z,11.93
2018-05-24T04:03:10.310Z,11.67
2018-05-24T04:05:38.917Z,11.97
2018-05-24T04:08:09.335Z,12.30
2018-05-24T04:10:37.907Z,11.77
2018-05-24T04:13:06.501Z,11.37
2018-05-24T04:15:35.077Z,11.33
2018-05-24T04:18:03.640Z,12.93
2018-05-24T04:20:32.190Z,11.33
2018-05-24T04:23:00.752Z,11.77
2018-05-24T04:25:29.322Z,11.37
2018-05-24T04:27:57.884Z,13.13
2018-05-24T04:30:26.461Z,11.20
2018-05-24T04:32:55.082Z,11.47
2018-05-24T04:35:23.799Z,12.03
2018-05-24T04:37:52.368Z,11.77
2018-05-24T04:40:20.938Z,11.13
2018-05-24T04:42:49.521Z,11.70
2018-05-24T04:45:18.097Z,12.97
2018-05-24T04:47:46.665Z,14.60
2018-05-24T04:50:15.232Z,13.30
2018-05-24T04:52:43.807Z,15.57
2018-05-24T04:55:12.369Z,14.70
2018-05-24T04:57:40.952Z,13.73
2018-05-24T05:00:09.562Z,14.03
2018-05-24T05:02:38.126Z,14.70
2018-05-24T05:05:06.691Z,14.80
2018-05-24T05:07:35.300Z,18.03
2018-05-24T05:10:03.886Z,16.27
2018-05-24T05:12:32.460Z,14.17
2018-05-24T05:15:01.026Z,36.23
2018-05-24T05:17:29.587Z,18.43
2018-05-24T05:19:58.151Z,17.10
2018-05-24T05:22:26.715Z,14.13
2018-05-24T05:24:55.275Z,14.13
2018-05-24T05:27:23.607Z,13.87
2018-05-24T05:29:52.167Z,16.30
2018-05-24T05:32:20.780Z,14.43
2018-05-24T05:34:49.340Z,18.60
2018-05-24T05:37:17.909Z,12.60
2018-05-24T05:39:46.491Z,12.20
2018-05-24T05:42:15.057Z,11.37
2018-05-24T05:44:43.635Z,11.57
2018-05-24T05:47:12.425Z,11.37
2018-05-24T05:49:41.001Z,13.50
2018-05-24T05:52:09.706Z,14.70
2018-05-24T05:54:38.391Z,14.80
2018-05-24T05:57:06.963Z,14.57
2018-05-24T05:59:35.518Z,11.00
2018-05-24T06:02:04.179Z,12.67
2018-05-24T06:04:32.753Z,14.07
2018-05-24T06:07:01.083Z,19.90
2018-05-24T06:09:29.656Z,13.90
2018-05-24T06:11:58.446Z,11.40
2018-05-24T06:14:27.030Z,18.53
2018-05-24T06:16:55.832Z,10.60
2018-05-24T06:19:24.975Z,10.40
2018-05-24T06:21:53.725Z,11.80
2018-05-24T06:24:22.289Z,12.80
2018-05-24T06:26:50.886Z,11.97
2018-05-24T06:29:19.516Z,10.70
2018-05-24T06:31:48.111Z,13.43
2018-05-24T06:34:16.673Z,10.50
2018-05-24T06:36:45.245Z,10.50
2018-05-24T06:39:13.833Z,10.43
2018-05-24T06:41:42.390Z,11.13
2018-05-24T06:44:10.969Z,10.63
2018-05-24T06:46:39.531Z,11.90
2018-05-24T06:49:08.083Z,9.93
2018-05-24T06:51:36.695Z,10.80
2018-05-24T06:54:05.296Z,10.07
2018-05-24T06:56:33.908Z,10.37
2018-05-24T06:59:02.517Z,11.30
2018-05-24T07:01:31.095Z,11.33
2018-05-24T07:03:59.700Z,11.63
2018-05-24T07:06:28.288Z,12.07
2018-05-24T07:08:56.871Z,13.00
2018-05-24T07:11:25.437Z,12.03
2018-05-24T07:13:54.033Z,11.90
2018-05-24T07:16:22.603Z,11.80
2018-05-24T07:18:52.103Z,11.57
2018-05-24T07:21:20.654Z,11.57
2018-05-24T07:23:49.225Z,10.87
2018-05-24T07:26:17.455Z,9.77
2018-05-24T07:28:46.025Z,9.27
2018-05-24T07:31:14.598Z,9.87
2018-05-24T07:33:43.165Z,10.53
2018-05-24T07:36:11.771Z,10.17
2018-05-24T07:38:40.332Z,9.60
2018-05-24T07:41:08.907Z,8.87
2018-05-24T07:43:37.483Z,18.10
2018-05-24T07:46:08.748Z,13.13
2018-05-24T07:48:37.308Z,12.10
2018-05-24T07:51:06.063Z,11.43
2018-05-24T07:53:34.689Z,10.80
2018-05-24T07:56:03.912Z,13.13
2018-05-24T07:58:32.521Z,13.20
2018-05-24T08:01:01.137Z,11.77
2018-05-24T08:03:29.900Z,11.47
2018-05-24T08:05:58.472Z,9.60
2018-05-24T08:08:27.063Z,9.83
2018-05-24T08:10:55.651Z,10.80
2018-05-24T08:13:24.255Z,14.10
2018-05-24T08:15:52.870Z,11.47
2018-05-24T08:18:21.474Z,9.93
2018-05-24T08:20:50.049Z,8.90
2018-05-24T08:23:18.610Z,9.10
2018-05-24T08:25:47.202Z,8.30
2018-05-24T08:28:15.790Z,8.30
2018-05-24T08:30:44.585Z,8.93
2018-05-24T08:33:13.193Z,7.80
2018-05-24T08:35:41.756Z,7.77
2018-05-24T08:38:10.326Z,7.73
2018-05-24T08:40:38.230Z,8.50
2018-05-24T08:43:07.082Z,8.07
2018-05-24T08:45:35.841Z,7.50
2018-05-24T08:48:04.405Z,7.90
2018-05-24T08:50:32.971Z,8.30
2018-05-24T08:53:02.363Z,8.10
2018-05-24T08:55:30.941Z,7.90
2018-05-24T08:57:59.553Z,7.63
2018-05-24T09:00:28.159Z,8.17
2018-05-24T09:02:56.837Z,9.63
2018-05-24T09:05:25.407Z,8.53
2018-05-24T09:07:53.994Z,8.07
2018-05-24T09:10:22.593Z,9.03
2018-05-24T09:12:51.152Z,8.93
2018-05-24T09:15:19.753Z,9.33
2018-05-24T09:17:48.333Z,9.47
2018-05-24T09:20:17.530Z,7.57
2018-05-24T09:22:46.262Z,8.90
2018-05-24T09:25:14.882Z,9.17
2018-05-24T09:27:43.725Z,8.40
2018-05-24T09:30:12.324Z,8.10
2018-05-24T09:32:40.868Z,7.73
2018-05-24T09:35:09.478Z,8.93
2018-05-24T09:37:38.080Z,8.10
2018-05-24T09:40:06.640Z,7.90
2018-05-24T09:42:35.195Z,7.40
2018-05-24T09:45:03.771Z,9.67
2018-05-24T09:47:32.380Z,8.40
2018-05-24T09:50:00.952Z,9.13
2018-05-24T09:52:29.531Z,9.23
2018-05-24T09:54:58.104Z,8.50
2018-05-24T09:57:26.675Z,8.13
2018-05-24T09:59:55.244Z,8.80
2018-05-24T10:02:23.844Z,8.77
2018-05-24T10:04:52.402Z,8.27
2018-05-24T10:07:20.948Z,7.93
2018-05-24T10:09:49.495Z,8.90
2018-05-24T10:12:18.100Z,9.17
2018-05-24T10:14:46.750Z,8.30
2018-05-24T10:17:15.428Z,8.60
2018-05-24T10:19:43.964Z,7.17
2018-05-24T10:22:12.545Z,8.03
2018-05-24T10:24:41.180Z,7.83
2018-05-24T10:27:09.817Z,7.97
2018-05-24T10:29:38.364Z,7.60
2018-05-24T10:32:06.964Z,7.47
2018-05-24T10:34:35.515Z,8.20
2018-05-24T10:37:04.119Z,8.57
2018-05-24T10:39:32.710Z,7.67
2018-05-24T10:42:01.275Z,9.00
2018-05-24T10:44:29.928Z,9.20
2018-05-24T10:46:58.491Z,9.43
2018-05-24T10:49:27.071Z,11.63
2018-05-24T10:51:55.630Z,8.67
2018-05-24T10:54:24.244Z,9.07
2018-05-24T10:56:53.414Z,7.90
2018-05-24T10:59:22.037Z,9.27
2018-05-24T11:01:50.631Z,7.97
2018-05-24T11:04:19.194Z,7.87
2018-05-24T11:06:47.848Z,8.40
2018-05-24T11:09:16.420Z,7.47
2018-05-24T11:11:44.997Z,7.70
2018-05-24T11:14:13.748Z,7.67
2018-05-24T11:16:42.321Z,7.50
2018-05-24T11:19:10.905Z,7.00
2018-05-24T11:21:39.495Z,8.97
2018-05-24T11:24:08.130Z,8.30
2018-05-24T11:26:36.736Z,8.73
2018-05-24T11:29:05.312Z,8.60
2018-05-24T11:31:33.883Z,10.40
2018-05-24T11:34:02.441Z,9.93
2018-05-24T11:36:30.999Z,8.47
2018-05-24T11:38:59.569Z,8.10
2018-05-24T11:41:28.124Z,8.50
2018-05-24T11:43:56.695Z,9.57
2018-05-24T11:46:25.335Z,8.30
2018-05-24T11:48:53.903Z,8.77
2018-05-24T11:51:22.497Z,8.13
2018-05-24T11:53:51.050Z,7.93
2018-05-24T11:56:19.614Z,8.20
2018-05-24T11:58:48.220Z,9.43
2018-05-24T12:01:16.786Z,11.33
2018-05-24T12:03:45.363Z,8.77
2018-05-24T12:06:13.927Z,6.80
2018-05-24T12:08:42.536Z,7.93
2018-05-24T12:11:11.120Z,6.80
2018-05-24T12:13:39.730Z,7.00
2018-05-24T12:16:08.299Z,6.77
2018-05-24T12:18:36.869Z,6.67
2018-05-24T12:21:05.203Z,7.77
2018-05-24T12:23:34.015Z,7.63
2018-05-24T12:26:02.589Z,8.53
2018-05-24T12:28:31.142Z,9.70
2018-05-24T12:33:33.579Z,7.77
2018-05-24T12:36:02.143Z,7.50
2018-05-24T12:38:30.722Z,7.93
2018-05-24T12:40:59.354Z,8.27
2018-05-24T12:43:27.907Z,8.30
2018-05-24T12:45:56.463Z,7.50
2018-05-24T12:48:25.219Z,8.70
2018-05-24T12:50:53.803Z,8.63
2018-05-24T12:53:22.352Z,8.90
2018-05-24T12:55:50.904Z,8.83
2018-05-24T12:58:19.469Z,7.90
2018-05-24T13:00:48.080Z,8.27
2018-05-24T13:03:16.651Z,8.57
2018-05-24T13:05:45.211Z,9.13
2018-05-24T13:08:13.770Z,8.97
2018-05-24T13:10:42.338Z,8.90
2018-05-24T13:13:10.907Z,8.53
2018-05-24T13:15:39.466Z,8.83
2018-05-24T13:18:08.029Z,8.33
2018-05-24T13:20:36.641Z,8.33
2018-05-24T13:23:05.212Z,8.80
2018-05-24T13:25:33.767Z,9.83
2018-05-24T13:28:02.352Z,8.90
2018-05-24T13:30:30.953Z,8.13
2018-05-24T13:32:59.524Z,8.07
2018-05-24T13:35:27.812Z,8.70
2018-05-24T13:37:56.436Z,8.30
2018-05-24T13:40:25.235Z,8.43
2018-05-24T13:42:53.835Z,8.10
2018-05-24T13:45:22.541Z,8.27
2018-05-24T13:47:51.213Z,8.60
2018-05-24T13:50:19.797Z,7.87
2018-05-24T13:52:48.364Z,8.13
2018-05-24T13:55:17.047Z,8.80
2018-05-24T13:57:46.664Z,8.30
2018-05-24T14:00:15.245Z,8.83
2018-05-24T14:02:43.605Z,9.50
2018-05-24T14:05:12.228Z,9.00
2018-05-24T14:07:40.877Z,9.80
2018-05-24T14:10:09.446Z,7.70
2018-05-24T14:12:38.041Z,8.80
2018-05-24T14:15:06.656Z,8.30
2018-05-24T14:17:35.223Z,9.63
2018-05-24T14:20:03.471Z,7.17
2018-05-24T14:22:32.024Z,6.30
2018-05-24T14:25:00.627Z,5.27
2018-05-24T14:27:29.196Z,5.63
2018-05-24T14:29:57.433Z,5.87
2018-05-24T14:32:26.024Z,7.50
2018-05-24T14:34:54.566Z,7.07
2018-05-24T14:37:23.155Z,10.43
2018-05-24T14:39:51.856Z,6.13
2018-05-24T14:42:20.482Z,7.57
2018-05-24T14:44:49.288Z,5.97
2018-05-24T14:47:17.845Z,6.97
2018-05-24T14:49:46.501Z,6.20
2018-05-24T14:52:15.108Z,7.93
2018-05-24T14:54:43.743Z,8.07
2018-05-24T14:57:12.318Z,7.63
2018-05-24T14:59:40.943Z,7.30
2018-05-24T15:02:09.513Z,8.13
2018-05-24T15:04:38.077Z,8.13
2018-05-24T15:07:06.649Z,8.50
2018-05-24T15:09:35.248Z,8.13
2018-05-24T15:12:03.874Z,15.93
2018-05-24T15:14:32.503Z,8.30
2018-05-24T15:17:01.063Z,8.37
2018-05-24T15:19:29.634Z,7.63
2018-05-24T15:21:58.198Z,7.87
2018-05-24T15:24:26.799Z,8.00
2018-05-24T15:26:55.347Z,6.97
2018-05-24T15:29:23.931Z,8.07
2018-05-24T15:31:52.490Z,8.07
2018-05-24T15:34:21.055Z,7.73
2018-05-24T15:36:49.620Z,8.13
2018-05-24T15:39:18.213Z,8.10
2018-05-24T15:41:46.520Z,9.10
2018-05-24T15:44:15.118Z,8.57
2018-05-24T15:46:43.666Z,8.00
2018-05-24T15:49:12.219Z,8.50
2018-05-24T15:51:40.776Z,8.43
2018-05-24T15:54:09.343Z,9.17
2018-05-24T15:56:37.909Z,8.33
2018-05-24T15:59:06.483Z,9.03
2018-05-24T16:01:35.092Z,8.50
2018-05-24T16:04:03.650Z,8.33
2018-05-24T16:06:32.263Z,9.20
2018-05-24T16:09:00.836Z,9.07
2018-05-24T16:11:29.397Z,8.80
2018-05-24T16:13:57.955Z,8.07
2018-05-24T16:16:26.580Z,9.13
2018-05-24T16:18:55.141Z,8.93
2018-05-24T16:21:23.715Z,8.80
2018-05-24T16:23:52.270Z,8.97
2018-05-24T16:26:20.847Z,9.60
2018-05-24T16:28:49.411Z,9.47
2018-05-24T16:31:17.965Z,9.60
2018-05-24T16:33:46.532Z,8.70
2018-05-24T16:36:15.111Z,8.53
2018-05-24T16:38:43.675Z,9.07
2018-05-24T16:41:12.320Z,9.33
2018-05-24T16:43:40.880Z,9.23
2018-05-24T16:46:09.429Z,8.60
2018-05-24T16:48:38.019Z,8.70
2018-05-24T16:51:06.583Z,8.43
2018-05-24T16:53:35.151Z,9.57
2018-05-24T16:56:03.710Z,8.70
2018-05-24T16:58:32.276Z,12.30
2018-05-24T17:01:00.867Z,13.00
2018-05-24T17:03:29.431Z,11.87
2018-05-24T17:05:57.994Z,9.80
2018-05-24T17:08:26.565Z,10.90
2018-05-24T17:10:55.132Z,10.60
2018-05-24T17:13:23.733Z,11.07
2018-05-24T17:15:51.975Z,11.80
2018-05-24T17:18:20.540Z,9.93
2018-05-24T17:20:49.127Z,10.80
2018-05-24T17:23:17.693Z,10.77
2018-05-24T17:25:46.265Z,11.63
2018-05-24T17:28:14.893Z,10.70
2018-05-24T17:30:43.475Z,10.13
2018-05-24T17:33:12.101Z,9.90
2018-05-24T17:35:40.720Z,9.87
2018-05-24T17:38:09.189Z,9.87
2018-05-24T17:40:37.764Z,10.80
2018-05-24T17:43:06.390Z,10.30
2018-05-24T17:45:34.959Z,9.97
2018-05-24T17:48:03.552Z,9.80
2018-05-24T17:50:31.857Z,10.03
2018-05-24T17:53:00.729Z,10.30
2018-05-24T17:55:30.079Z,9.90
2018-05-24T17:57:58.687Z,9.83
2018-05-24T18:00:27.303Z,10.80
2018-05-24T18:02:55.858Z,9.80
2018-05-24T18:05:24.419Z,11.60
2018-05-24T18:07:52.985Z,10.20
2018-05-24T18:10:21.578Z,10.27
2018-05-24T18:12:50.188Z,9.73
2018-05-24T18:15:18.753Z,9.83
2018-05-24T18:17:47.360Z,10.53
2018-05-24T18:20:15.959Z,10.47
2018-05-24T18:22:44.571Z,10.63
2018-05-24T18:25:13.155Z,10.70
2018-05-24T18:27:41.780Z,10.03
2018-05-24T18:30:11.620Z,10.07
2018-05-24T18:32:40.206Z,9.17
2018-05-24T18:35:09.148Z,8.87
2018-05-24T18:37:37.731Z,9.30
2018-05-24T18:40:06.312Z,9.90
2018-05-24T18:42:34.894Z,9.70
2018-05-24T18:45:03.800Z,9.60
2018-05-24T18:47:32.383Z,10.13
2018-05-24T18:50:00.988Z,10.30
2018-05-24T18:52:29.709Z,9.50
2018-05-24T18:54:58.292Z,10.53
2018-05-24T18:57:26.847Z,10.73
2018-05-24T18:59:55.415Z,9.83
2018-05-24T19:02:24.266Z,14.70
2018-05-24T19:04:52.830Z,11.13
2018-05-24T19:07:21.443Z,11.67
2018-05-24T19:09:50.023Z,12.90
2018-05-24T19:12:18.584Z,15.47
2018-05-24T19:14:47.136Z,11.50
2018-05-24T19:17:15.702Z,10.50
2018-05-24T19:19:44.272Z,10.73
2018-05-24T19:22:12.871Z,10.90
2018-05-24T19:24:41.468Z,11.00
2018-05-24T19:27:10.035Z,11.17
2018-05-24T19:29:38.601Z,11.63
2018-05-24T19:32:07.205Z,14.33
2018-05-24T19:34:35.766Z,16.23
2018-05-24T19:37:04.374Z,14.17
2018-05-24T19:39:32.936Z,14.37
2018-05-24T19:42:01.552Z,12.63
2018-05-24T19:44:30.185Z,12.30
2018-05-24T19:46:58.795Z,12.37
2018-05-24T19:49:27.403Z,12.87
2018-05-24T19:51:55.970Z,12.80
2018-05-24T19:54:24.594Z,14.33
2018-05-24T19:56:53.156Z,14.50
2018-05-24T19:59:21.780Z,14.10
2018-05-24T20:01:50.360Z,16.57
2018-05-24T20:04:18.932Z,12.40
2018-05-24T20:06:47.541Z,13.27
2018-05-24T20:09:16.110Z,10.90
2018-05-24T20:11:44.711Z,9.40
2018-05-24T20:14:13.265Z,9.60
2018-05-24T20:16:41.829Z,8.80
2018-05-24T20:19:10.384Z,9.07
2018-05-24T20:21:38.940Z,7.03
2018-05-24T20:24:07.505Z,7.40
2018-05-24T20:26:36.137Z,7.63
2018-05-24T20:29:04.876Z,8.00
2018-05-24T20:31:33.469Z,7.33
2018-05-24T20:34:02.031Z,8.23
2018-05-24T20:36:30.625Z,8.37
2018-05-24T20:38:59.200Z,8.13
2018-05-24T20:41:28.914Z,8.23
2018-05-24T20:43:57.490Z,7.93
2018-05-24T20:46:26.055Z,8.37
2018-05-24T20:48:54.619Z,8.13
2018-05-24T20:51:23.209Z,10.43
2018-05-24T20:53:51.800Z,8.83
2018-05-24T20:56:20.404Z,9.40
2018-05-24T20:58:49.160Z,10.03
2018-05-24T21:01:17.748Z,9.80
2018-05-24T21:03:46.319Z,9.00
2018-05-24T21:06:14.880Z,9.00
2018-05-24T21:08:43.455Z,9.37
2018-05-24T21:11:12.451Z,9.53
2018-05-24T21:13:41.134Z,9.70
2018-05-24T21:16:09.856Z,10.13
2018-05-24T21:18:38.424Z,10.80
2018-05-24T21:21:06.979Z,10.43
2018-05-24T21:23:35.543Z,10.50
2018-05-24T21:26:04.132Z,10.77
2018-05-24T21:28:32.701Z,11.03
2018-05-24T21:31:01.268Z,10.70
2018-05-24T21:33:29.830Z,11.03
2018-05-24T21:35:58.403Z,10.17
2018-05-24T21:38:26.992Z,10.17
2018-05-24T21:40:55.565Z,10.10
2018-05-24T21:43:24.132Z,9.83
2018-05-24T21:45:52.734Z,9.77
2018-05-24T21:48:22.236Z,10.03
2018-05-24T21:50:50.862Z,9.47
2018-05-24T21:53:19.418Z,9.67
2018-05-24T21:55:48.187Z,9.87
2018-05-24T21:58:16.760Z,10.40
2018-05-24T22:00:51.345Z,10.47
2018-05-24T22:03:19.912Z,9.97
2018-05-24T22:05:48.476Z,10.90
2018-05-24T22:08:17.048Z,10.43
2018-05-24T22:10:45.616Z,10.83
2018-05-24T22:13:14.197Z,10.60
2018-05-24T22:15:42.752Z,10.97
2018-05-24T22:18:11.343Z,11.10
2018-05-24T22:20:39.924Z,12.20
2018-05-24T22:23:08.567Z,11.90
2018-05-24T22:25:37.133Z,11.30
2018-05-24T22:28:05.705Z,12.13
2018-05-24T22:30:34.286Z,12.23
2018-05-24T22:33:02.853Z,12.30
2018-05-24T22:35:31.422Z,11.50
2018-05-24T22:38:00.003Z,11.83
2018-05-24T22:40:28.592Z,11.47
2018-05-24T22:42:57.687Z,13.17
2018-05-24T22:45:26.259Z,12.23
2018-05-24T22:47:54.875Z,12.60
2018-05-24T22:50:23.615Z,12.33
2018-05-24T22:52:52.194Z,12.23
2018-05-24T22:55:20.759Z,12.33
2018-05-24T22:57:49.351Z,12.50
2018-05-24T23:00:17.981Z,12.77
2018-05-24T23:02:46.751Z,12.60
2018-05-24T23:05:15.328Z,11.97
2018-05-24T23:07:43.908Z,12.30
2018-05-24T23:10:12.492Z,11.70
2018-05-24T23:12:41.064Z,12.57
2018-05-24T23:15:09.628Z,11.47
2018-05-24T23:17:38.197Z,11.23
2018-05-24T23:20:06.758Z,12.50
2018-05-24T23:22:38.346Z,11.97
2018-05-24T23:25:06.962Z,12.00
2018-05-24T23:27:35.510Z,11.80
2018-05-24T23:30:05.275Z,11.40
2018-05-24T23:32:33.831Z,12.67
2018-05-24T23:35:02.402Z,11.20
2018-05-24T23:37:30.967Z,10.57
2018-05-24T23:39:59.534Z,12.10
2018-05-24T23:42:28.107Z,12.43
2018-05-24T23:44:56.677Z,12.47
2018-05-24T23:47:25.295Z,12.57
2018-05-24T23:49:53.902Z,12.00
2018-05-24T23:52:22.486Z,12.27
2018-05-24T23:54:51.307Z,12.33
2018-05-24T23:57:19.866Z,12.50
2018-05-24T23:59:48.430Z,11.90
